createdAt,value
2019-02-04T00:01:46.238Z,75.96
2019-02-04T00:04:15.973Z,75.89
2019-02-04T00:06:45.679Z,75.74
2019-02-04T00:09:15.400Z,75.62
2019-02-04T00:11:45.095Z,75.85
2019-02-04T00:14:14.890Z,76.11
2019-02-04T00:16:44.320Z,76.42
2019-02-04T00:19:13.993Z,76.66
2019-02-04T00:21:43.776Z,76.84
2019-02-04T00:24:13.460Z,76.99
2019-02-04T00:26:51.325Z,77.31
2019-02-04T00:29:14.141Z,77.20
2019-02-04T00:31:43.633Z,77.06
2019-02-04T00:34:13.151Z,77.00
2019-02-04T00:36:42.948Z,77.21
2019-02-04T00:39:12.817Z,77.07
2019-02-04T00:41:42.459Z,77.05
2019-02-04T00:44:12.107Z,77.17
2019-02-04T00:46:51.751Z,77.19
2019-02-04T00:49:13.384Z,76.93
2019-02-04T00:51:43.093Z,76.68
2019-02-04T00:54:12.798Z,76.52
2019-02-04T00:56:42.570Z,76.62
2019-02-04T00:59:12.485Z,76.54
2019-02-04T01:01:41.921Z,76.34
2019-02-04T01:04:11.302Z,76.44
2019-02-04T01:06:40.975Z,76.52
2019-02-04T01:09:11.583Z,76.42
2019-02-04T01:11:41.059Z,76.14
2019-02-04T01:14:10.815Z,76.04
2019-02-04T01:16:40.688Z,75.87
2019-02-04T01:19:10.508Z,75.95
2019-02-04T01:21:40.377Z,75.79
2019-02-04T01:24:10.189Z,75.59
2019-02-04T01:26:39.627Z,75.99
2019-02-04T01:29:09.335Z,77.15
2019-02-04T01:31:39.109Z,77.34
2019-02-04T01:34:08.606Z,77.70
2019-02-04T01:36:38.665Z,78.04
2019-02-04T01:39:09.938Z,78.40
2019-02-04T01:41:39.441Z,78.59
2019-02-04T01:44:09.204Z,79.03
2019-02-04T01:46:39.037Z,79.95
2019-02-04T01:49:08.486Z,80.01
2019-02-04T01:51:38.380Z,79.92
2019-02-04T01:54:07.801Z,79.78
2019-02-04T01:56:37.496Z,79.48
2019-02-04T01:59:06.995Z,79.11
2019-02-04T02:01:37.792Z,78.73
2019-02-04T02:04:07.692Z,78.34
2019-02-04T02:06:37.502Z,78.40
2019-02-04T02:09:16.631Z,78.59
2019-02-04T02:11:46.074Z,78.10
2019-02-04T02:14:15.673Z,78.02
2019-02-04T02:16:45.446Z,78.40
2019-02-04T02:19:14.921Z,78.58
2019-02-04T02:21:44.593Z,78.52
2019-02-04T02:24:14.305Z,79.34
2019-02-04T02:26:43.972Z,79.37
2019-02-04T02:29:14.048Z,79.36
2019-02-04T02:31:43.501Z,79.57
2019-02-04T02:34:12.950Z,79.72
2019-02-04T02:36:42.484Z,79.68
2019-02-04T02:39:12.176Z,79.72
2019-02-04T02:41:41.874Z,79.37
2019-02-04T02:44:11.984Z,79.34
2019-02-04T02:46:41.795Z,79.36
2019-02-04T02:49:11.500Z,79.37
2019-02-04T02:51:40.945Z,78.72
2019-02-04T02:54:10.591Z,78.62
2019-02-04T02:56:40.019Z,78.04
2019-02-04T02:59:09.413Z,78.04
2019-02-04T03:01:38.857Z,77.93
2019-02-04T03:04:08.526Z,77.72
2019-02-04T03:06:38.416Z,77.51
2019-02-04T03:09:08.995Z,77.28
2019-02-04T03:11:38.860Z,77.02
2019-02-04T03:14:08.375Z,77.14
2019-02-04T03:16:37.925Z,77.32
2019-02-04T03:19:07.399Z,77.35
2019-02-04T03:21:36.830Z,77.28
2019-02-04T03:24:06.419Z,77.10
2019-02-04T03:26:36.049Z,76.92
2019-02-04T03:29:05.736Z,77.47
2019-02-04T03:31:38.872Z,78.31
2019-02-04T03:34:06.609Z,79.00
2019-02-04T03:36:36.055Z,79.26
2019-02-04T03:39:08.630Z,79.24
2019-02-04T03:41:38.364Z,78.88
2019-02-04T03:44:07.959Z,78.92
2019-02-04T03:46:37.424Z,78.82
2019-02-04T03:49:07.391Z,78.72
2019-02-04T03:51:36.842Z,78.61
2019-02-04T03:54:06.598Z,78.54
2019-02-04T03:56:36.149Z,78.44
2019-02-04T03:59:05.904Z,78.20
2019-02-04T04:01:35.421Z,78.05
2019-02-04T04:04:05.318Z,78.09
2019-02-04T04:06:35.215Z,78.24
2019-02-04T04:09:07.451Z,78.32
2019-02-04T04:11:36.982Z,78.33
2019-02-04T04:14:06.497Z,78.57
2019-02-04T04:16:35.939Z,78.64
2019-02-04T04:19:05.714Z,78.81
2019-02-04T04:21:35.153Z,79.16
2019-02-04T04:24:04.627Z,79.39
2019-02-04T04:26:34.220Z,79.24
2019-02-04T04:29:04.035Z,79.74
2019-02-04T04:31:33.470Z,80.41
2019-02-04T04:34:03.761Z,80.92
2019-02-04T04:36:33.498Z,80.88
2019-02-04T04:39:04.592Z,80.82
2019-02-04T04:41:34.187Z,81.12
2019-02-04T04:44:03.692Z,81.46
2019-02-04T04:46:33.605Z,81.83
2019-02-04T04:49:03.000Z,81.57
2019-02-04T04:51:32.436Z,81.69
2019-02-04T04:54:04.505Z,81.93
2019-02-04T04:56:33.925Z,82.01
2019-02-04T04:59:03.572Z,81.95
2019-02-04T05:01:33.766Z,81.90
2019-02-04T05:04:03.865Z,82.08
2019-02-04T05:06:33.594Z,81.84
2019-02-04T05:09:04.769Z,81.94
2019-02-04T05:11:34.604Z,82.29
2019-02-04T05:14:04.455Z,82.39
2019-02-04T05:16:33.905Z,82.62
2019-02-04T05:19:03.750Z,83.08
2019-02-04T05:21:33.481Z,83.25
2019-02-04T05:24:02.874Z,83.42
2019-02-04T05:26:32.772Z,84.06
2019-02-04T05:29:02.878Z,84.90
2019-02-04T05:31:32.322Z,85.65
2019-02-04T05:34:01.926Z,85.89
2019-02-04T05:36:31.757Z,86.06
2019-02-04T05:39:01.514Z,86.16
2019-02-04T05:41:30.956Z,86.30
2019-02-04T05:44:00.466Z,86.47
2019-02-04T05:46:30.095Z,86.51
2019-02-04T05:48:59.886Z,86.44
2019-02-04T05:51:29.358Z,86.58
2019-02-04T05:53:58.793Z,86.71
2019-02-04T05:56:28.468Z,86.76
2019-02-04T05:58:58.203Z,86.71
2019-02-04T06:01:28.024Z,86.70
2019-02-04T06:03:57.741Z,86.67
2019-02-04T06:06:27.428Z,86.65
2019-02-04T06:08:57.063Z,86.65
2019-02-04T06:11:27.332Z,86.33
2019-02-04T06:13:57.176Z,85.90
2019-02-04T06:16:26.985Z,85.78
2019-02-04T06:19:00.816Z,85.94
2019-02-04T06:21:27.652Z,85.82
2019-02-04T06:23:57.359Z,85.28
2019-02-04T06:26:26.941Z,85.29
2019-02-04T06:28:56.347Z,85.70
2019-02-04T06:31:26.103Z,85.67
2019-02-04T06:33:55.962Z,85.56
2019-02-04T06:36:25.743Z,85.13
2019-02-04T06:38:56.832Z,84.93
2019-02-04T06:41:26.527Z,84.63
2019-02-04T06:43:56.129Z,84.13
2019-02-04T06:46:25.959Z,83.80
2019-02-04T06:48:55.727Z,83.61
2019-02-04T06:51:25.115Z,83.28
2019-02-04T06:53:54.973Z,82.89
2019-02-04T06:56:24.882Z,82.60
2019-02-04T06:58:54.702Z,82.24
2019-02-04T07:01:24.101Z,82.10
2019-02-04T07:03:53.701Z,82.02
2019-02-04T07:06:24.326Z,81.72
2019-02-04T07:08:53.886Z,81.19
2019-02-04T07:11:23.563Z,80.83
2019-02-04T07:13:53.225Z,80.68
2019-02-04T07:16:22.879Z,79.98
2019-02-04T07:18:52.472Z,78.86
2019-02-04T07:21:22.347Z,77.88
2019-02-04T07:23:52.220Z,76.94
2019-02-04T07:26:21.859Z,74.58
2019-02-04T07:28:51.513Z,73.09
2019-02-04T07:31:21.235Z,72.07
2019-02-04T07:33:50.734Z,71.87
2019-02-04T07:36:20.727Z,71.94
2019-02-04T07:38:50.239Z,70.54
2019-02-04T07:41:19.973Z,71.06
2019-02-04T07:43:49.477Z,71.48
2019-02-04T07:46:18.868Z,71.57
2019-02-04T07:48:48.476Z,72.18
2019-02-04T07:51:18.324Z,71.50
2019-02-04T07:53:47.762Z,71.27
2019-02-04T07:56:17.435Z,69.60
2019-02-04T07:58:47.234Z,69.33
2019-02-04T08:01:16.795Z,68.13
2019-02-04T08:03:46.425Z,68.04
2019-02-04T08:06:15.911Z,67.48
2019-02-04T08:08:45.796Z,66.79
2019-02-04T08:11:15.198Z,66.06
2019-02-04T08:13:44.604Z,65.37
2019-02-04T08:16:14.555Z,64.23
2019-02-04T08:18:44.645Z,64.70
2019-02-04T08:21:14.271Z,64.66
2019-02-04T08:23:43.676Z,65.44
2019-02-04T08:26:13.330Z,65.22
2019-02-04T08:28:42.828Z,65.60
2019-02-04T08:31:12.402Z,65.65
2019-02-04T08:33:42.547Z,65.64
2019-02-04T08:36:12.509Z,62.65
2019-02-04T08:38:42.241Z,62.94
2019-02-04T08:41:12.073Z,62.96
2019-02-04T08:43:41.616Z,61.39
2019-02-04T08:46:11.255Z,60.53
2019-02-04T08:48:41.077Z,60.58
2019-02-04T08:51:10.968Z,59.54
2019-02-04T08:53:40.651Z,59.40
2019-02-04T08:56:10.213Z,57.94
2019-02-04T08:58:39.903Z,57.31
2019-02-04T09:01:09.799Z,57.36
2019-02-04T09:03:40.004Z,56.47
2019-02-04T09:06:09.467Z,55.87
2019-02-04T09:08:38.877Z,54.72
2019-02-04T09:11:08.841Z,54.60
2019-02-04T09:13:38.672Z,54.28
2019-02-04T09:16:08.160Z,53.62
2019-02-04T09:18:44.890Z,54.46
2019-02-04T09:21:09.488Z,53.76
2019-02-04T09:23:39.333Z,52.01
2019-02-04T09:26:09.061Z,51.56
2019-02-04T09:28:38.668Z,51.09
2019-02-04T09:31:08.499Z,49.89
2019-02-04T09:33:38.549Z,48.13
2019-02-04T09:36:08.415Z,48.29
2019-02-04T09:38:38.015Z,46.70
2019-02-04T09:41:07.987Z,46.30
2019-02-04T09:43:37.824Z,45.19
2019-02-04T09:46:07.292Z,43.29
2019-02-04T09:48:37.269Z,42.84
2019-02-04T09:51:07.030Z,43.04
2019-02-04T09:53:36.575Z,42.30
2019-02-04T09:56:06.680Z,39.93
2019-02-04T09:58:36.240Z,39.99
2019-02-04T10:01:06.637Z,39.79
2019-02-04T10:03:36.335Z,38.92
2019-02-04T10:06:06.478Z,39.08
2019-02-04T10:08:36.115Z,39.73
2019-02-04T10:11:05.791Z,40.09
2019-02-04T10:13:35.492Z,40.48
2019-02-04T10:16:05.900Z,40.53
2019-02-04T10:18:37.853Z,40.47
2019-02-04T10:21:07.152Z,40.69
2019-02-04T10:23:36.906Z,40.99
2019-02-04T10:26:06.515Z,40.99
2019-02-04T10:28:36.279Z,42.39
2019-02-04T10:31:05.880Z,44.01
2019-02-04T10:33:35.364Z,44.13
2019-02-04T10:36:05.049Z,44.93
2019-02-04T10:38:34.485Z,45.66
2019-02-04T10:41:04.404Z,45.75
2019-02-04T10:43:34.586Z,45.77
2019-02-04T10:46:05.088Z,47.26
2019-02-04T10:48:35.041Z,46.92
2019-02-04T10:51:04.965Z,47.99
2019-02-04T10:53:34.538Z,48.09
2019-02-04T10:56:04.475Z,48.16
2019-02-04T10:58:34.287Z,48.75
2019-02-04T11:01:05.451Z,48.38
2019-02-04T11:03:35.343Z,47.78
2019-02-04T11:06:05.526Z,48.08
2019-02-04T11:08:34.887Z,47.96
2019-02-04T11:11:04.913Z,46.45
2019-02-04T11:13:34.592Z,48.11
2019-02-04T11:16:04.485Z,48.86
2019-02-04T11:18:34.130Z,48.78
2019-02-04T11:21:04.033Z,48.78
2019-02-04T11:23:33.791Z,49.14
2019-02-04T11:26:03.714Z,49.67
2019-02-04T11:28:33.453Z,50.21
2019-02-04T11:31:05.100Z,50.05
2019-02-04T11:33:34.485Z,50.75
2019-02-04T11:36:04.548Z,51.21
2019-02-04T11:38:34.497Z,51.11
2019-02-04T11:41:04.357Z,50.65
2019-02-04T11:43:33.749Z,50.46
2019-02-04T11:46:03.581Z,50.56
2019-02-04T11:48:33.506Z,50.35
2019-02-04T11:51:09.718Z,50.42
2019-02-04T11:53:34.315Z,50.08
2019-02-04T11:56:03.784Z,50.85
2019-02-04T11:58:33.290Z,51.40
2019-02-04T12:01:03.169Z,51.15
2019-02-04T12:03:33.048Z,51.35
2019-02-04T12:06:02.452Z,52.34
2019-02-04T12:08:32.145Z,53.54
2019-02-04T12:11:21.533Z,52.83
2019-02-04T12:13:51.012Z,53.76
2019-02-04T12:16:20.451Z,53.54
2019-02-04T12:18:49.863Z,53.88
2019-02-04T12:21:21.682Z,53.16
2019-02-04T12:23:51.185Z,53.15
2019-02-04T12:26:20.887Z,53.51
2019-02-04T12:28:51.642Z,53.25
2019-02-04T12:31:21.803Z,53.17
2019-02-04T12:33:51.447Z,53.06
2019-02-04T12:36:20.958Z,53.00
2019-02-04T12:38:50.855Z,53.09
2019-02-04T12:41:20.266Z,53.13
2019-02-04T12:43:50.104Z,53.00
2019-02-04T12:46:20.020Z,52.70
2019-02-04T12:48:49.714Z,52.38
2019-02-04T12:51:19.117Z,51.92
2019-02-04T12:53:48.709Z,52.44
2019-02-04T12:56:18.201Z,52.57
2019-02-04T12:58:55.333Z,53.17
2019-02-04T13:01:19.055Z,53.30
2019-02-04T13:03:48.573Z,53.30
2019-02-04T13:06:18.448Z,53.18
2019-02-04T13:08:48.171Z,53.24
2019-02-04T13:11:18.070Z,53.32
2019-02-04T13:13:48.233Z,53.51
2019-02-04T13:16:18.026Z,53.85
2019-02-04T13:18:47.742Z,53.20
2019-02-04T13:21:17.582Z,53.39
2019-02-04T13:23:47.067Z,53.51
2019-02-04T13:26:16.465Z,53.96
2019-02-04T13:28:46.031Z,54.27
2019-02-04T13:31:15.625Z,54.33
2019-02-04T13:33:45.111Z,54.34
2019-02-04T13:36:14.779Z,54.53
2019-02-04T13:38:44.371Z,54.61
2019-02-04T13:41:14.219Z,54.54
2019-02-04T13:43:44.039Z,54.53
2019-02-04T13:46:13.720Z,54.85
2019-02-04T13:48:43.312Z,54.55
2019-02-04T13:51:13.169Z,54.65
2019-02-04T13:53:42.575Z,54.73
2019-02-04T13:56:14.575Z,55.06
2019-02-04T13:58:44.155Z,55.22
2019-02-04T14:01:14.041Z,55.35
2019-02-04T14:03:43.429Z,55.59
2019-02-04T14:06:13.365Z,55.67
2019-02-04T14:08:43.174Z,55.94
2019-02-04T14:11:12.848Z,56.12
2019-02-04T14:13:42.567Z,56.51
2019-02-04T14:16:12.357Z,56.63
2019-02-04T14:18:41.854Z,57.17
2019-02-04T14:21:11.251Z,57.77
2019-02-04T14:23:40.934Z,58.15
2019-02-04T14:26:10.911Z,58.57
2019-02-04T14:28:40.740Z,59.18
2019-02-04T14:31:10.182Z,59.70
2019-02-04T14:33:39.588Z,59.87
2019-02-04T14:36:09.565Z,60.36
2019-02-04T14:38:39.432Z,60.87
2019-02-04T14:41:09.134Z,60.88
2019-02-04T14:43:50.857Z,60.73
2019-02-04T14:46:35.127Z,61.36
2019-02-04T14:49:47.189Z,61.46
2019-02-04T14:52:46.960Z,61.85
2019-02-04T14:55:52.427Z,62.51
2019-02-04T14:58:46.385Z,63.35
2019-02-04T15:02:02.868Z,63.49
2019-02-04T15:05:23.966Z,63.58
2019-02-04T15:08:39.640Z,64.25
2019-02-04T15:11:33.289Z,64.56
2019-02-04T15:14:32.197Z,65.49
2019-02-04T15:17:26.606Z,66.47
2019-02-04T15:20:55.269Z,67.32
2019-02-04T15:24:09.178Z,68.30
2019-02-04T15:27:05.387Z,69.16
2019-02-04T15:30:13.949Z,69.79
2019-02-04T15:33:19.523Z,70.31
2019-02-04T15:36:32.508Z,70.66
2019-02-04T15:39:29.718Z,71.01
2019-02-04T15:42:31.896Z,71.02
2019-02-04T15:45:04.848Z,71.03
2019-02-04T15:47:42.676Z,71.09
2019-02-04T15:50:55.028Z,71.13
2019-02-04T15:53:24.523Z,71.44
2019-02-04T15:55:54.392Z,71.64
2019-02-04T15:58:23.996Z,71.64
2019-02-04T16:00:55.612Z,71.96
2019-02-04T16:03:25.306Z,71.93
2019-02-04T16:05:54.706Z,72.49
2019-02-04T16:08:24.623Z,72.66
2019-02-04T16:10:54.103Z,72.77
2019-02-04T16:13:23.867Z,73.03
2019-02-04T16:15:53.249Z,73.23
2019-02-04T16:18:22.964Z,73.45
2019-02-04T16:20:52.720Z,73.46
2019-02-04T16:23:22.120Z,73.54
2019-02-04T16:25:51.523Z,73.84
2019-02-04T16:28:21.659Z,73.99
2019-02-04T16:30:53.587Z,74.25
2019-02-04T16:33:23.198Z,74.20
2019-02-04T16:35:52.980Z,74.19
2019-02-04T16:38:22.671Z,74.19
2019-02-04T16:40:52.662Z,74.38
2019-02-04T16:43:22.245Z,74.54
2019-02-04T16:45:52.644Z,74.76
2019-02-04T16:48:22.147Z,74.52
2019-02-04T16:51:10.636Z,74.67
2019-02-04T16:53:25.263Z,75.39
2019-02-04T16:55:55.351Z,75.01
2019-02-04T16:58:24.926Z,74.86
2019-02-04T17:00:54.355Z,74.83
2019-02-04T17:03:24.290Z,74.72
2019-02-04T17:05:53.797Z,74.67
2019-02-04T17:08:23.494Z,74.87
2019-02-04T17:10:53.073Z,74.99
2019-02-04T17:13:23.332Z,74.95
2019-02-04T17:15:53.397Z,74.90
2019-02-04T17:18:22.897Z,74.98
2019-02-04T17:20:52.300Z,75.10
2019-02-04T17:23:22.819Z,75.08
2019-02-04T17:25:54.587Z,74.89
2019-02-04T17:28:24.410Z,74.73
2019-02-04T17:30:54.271Z,74.76
2019-02-04T17:33:24.028Z,74.66
2019-02-04T17:35:53.509Z,74.72
2019-02-04T17:38:23.717Z,74.78
2019-02-04T17:40:53.578Z,74.79
2019-02-04T17:43:23.247Z,74.73
2019-02-04T17:45:52.665Z,74.76
2019-02-04T17:48:23.504Z,74.81
2019-02-04T17:50:53.474Z,74.76
2019-02-04T17:53:33.608Z,74.71
2019-02-04T17:55:54.388Z,74.87
2019-02-04T17:58:24.815Z,74.89
2019-02-04T18:00:55.039Z,74.93
2019-02-04T18:03:25.142Z,75.01
2019-02-04T18:05:55.325Z,75.01
2019-02-04T18:08:24.742Z,74.86
2019-02-04T18:10:54.534Z,74.87
2019-02-04T18:13:24.313Z,74.77
2019-02-04T18:15:54.128Z,74.73
2019-02-04T18:18:24.182Z,74.80
2019-02-04T18:20:53.892Z,74.93
2019-02-04T18:23:23.732Z,74.91
2019-02-04T18:25:53.641Z,75.02
2019-02-04T18:28:23.104Z,75.17
2019-02-04T18:30:52.837Z,75.29
2019-02-04T18:33:22.674Z,75.23
2019-02-04T18:35:52.217Z,75.12
2019-02-04T18:38:21.635Z,75.05
2019-02-04T18:40:51.315Z,75.09
2019-02-04T18:43:21.191Z,75.22
2019-02-04T18:45:50.946Z,75.20
2019-02-04T18:48:21.122Z,75.36
2019-02-04T18:50:50.834Z,75.36
2019-02-04T18:53:20.257Z,75.28
2019-02-04T18:55:49.689Z,75.43
2019-02-04T18:58:19.433Z,75.73
2019-02-04T19:00:49.679Z,75.44
2019-02-04T19:03:19.096Z,75.15
2019-02-04T19:05:48.650Z,75.17
2019-02-04T19:08:18.376Z,75.29
2019-02-04T19:10:47.874Z,75.18
2019-02-04T19:13:17.298Z,75.09
2019-02-04T19:15:46.877Z,75.17
2019-02-04T19:18:18.793Z,75.15
2019-02-04T19:20:48.719Z,75.04
2019-02-04T19:23:18.465Z,74.90
2019-02-04T19:25:48.118Z,74.91
2019-02-04T19:28:17.980Z,74.89
2019-02-04T19:31:17.200Z,74.90
2019-02-04T19:33:47.069Z,74.81
2019-02-04T19:36:18.577Z,75.20
2019-02-04T19:38:48.465Z,75.50
2019-02-04T19:41:18.333Z,75.42
2019-02-04T19:43:47.833Z,75.27
2019-02-04T19:46:17.339Z,75.19
2019-02-04T19:48:46.741Z,75.08
2019-02-04T19:51:16.523Z,75.04
2019-02-04T19:53:46.031Z,75.01
2019-02-04T19:56:15.534Z,75.07
2019-02-04T19:58:45.082Z,75.06
2019-02-04T20:01:14.751Z,75.08
2019-02-04T20:03:44.548Z,75.33
2019-02-04T20:06:14.335Z,75.47
2019-02-04T20:08:44.090Z,75.13
2019-02-04T20:11:13.767Z,74.90
2019-02-04T20:13:43.399Z,75.29
2019-02-04T20:16:13.252Z,75.14
2019-02-04T20:18:42.786Z,75.09
2019-02-04T20:21:12.456Z,75.04
2019-02-04T20:23:41.978Z,75.27
2019-02-04T20:26:11.636Z,75.20
2019-02-04T20:28:41.039Z,75.25
2019-02-04T20:31:10.486Z,75.27
2019-02-04T20:33:40.019Z,75.42
2019-02-04T20:36:10.096Z,75.47
2019-02-04T20:38:39.928Z,75.69
2019-02-04T20:41:09.652Z,75.47
2019-02-04T20:43:40.552Z,75.51
2019-02-04T20:46:10.096Z,75.01
2019-02-04T20:48:39.874Z,74.59
2019-02-04T20:51:09.835Z,74.58
2019-02-04T20:53:39.528Z,74.68
2019-02-04T20:56:09.238Z,74.80
2019-02-04T20:58:38.822Z,74.94
2019-02-04T21:01:08.779Z,75.24
2019-02-04T21:03:38.185Z,75.41
2019-02-04T21:06:07.596Z,75.58
2019-02-04T21:08:38.449Z,75.69
2019-02-04T21:11:08.188Z,75.86
2019-02-04T21:13:37.577Z,76.14
2019-02-04T21:16:06.990Z,76.30
2019-02-04T21:18:36.535Z,76.30
2019-02-04T21:21:06.010Z,76.27
2019-02-04T21:23:35.422Z,76.41
2019-02-04T21:26:06.960Z,76.63
2019-02-04T21:28:36.517Z,76.70
2019-02-04T21:31:06.299Z,76.79
2019-02-04T21:33:36.069Z,77.03
2019-02-04T21:36:05.783Z,76.94
2019-02-04T21:38:35.178Z,77.04
2019-02-04T21:41:04.823Z,77.12
2019-02-04T21:43:35.120Z,77.18
2019-02-04T21:46:04.715Z,77.44
2019-02-04T21:48:34.286Z,77.62
2019-02-04T21:51:03.728Z,77.89
2019-02-04T21:53:33.447Z,77.67
2019-02-04T21:56:03.346Z,76.91
2019-02-04T21:58:32.785Z,76.92
2019-02-04T22:01:02.378Z,77.08
2019-02-04T22:03:31.992Z,77.37
2019-02-04T22:06:01.613Z,77.25
2019-02-04T22:08:31.007Z,76.69
2019-02-04T22:11:00.605Z,76.56
2019-02-04T22:13:30.257Z,76.62
2019-02-04T22:15:59.942Z,76.69
2019-02-04T22:18:29.758Z,76.80
2019-02-04T22:20:59.569Z,76.74
2019-02-04T22:23:29.150Z,76.59
2019-02-04T22:25:58.971Z,76.57
2019-02-04T22:28:28.593Z,76.37
2019-02-04T22:30:58.690Z,75.93
2019-02-04T22:33:28.100Z,76.11
2019-02-04T22:35:57.590Z,76.43
2019-02-04T22:38:27.197Z,76.14
2019-02-04T22:40:56.794Z,75.71
2019-02-04T22:43:26.275Z,75.26
2019-02-04T22:45:55.920Z,74.99
2019-02-04T22:48:25.719Z,74.93
2019-02-04T22:50:55.138Z,74.99
2019-02-04T22:53:24.733Z,74.81
2019-02-04T22:55:54.125Z,74.76
2019-02-04T22:58:23.606Z,74.70
2019-02-04T23:01:18.816Z,74.76
2019-02-04T23:03:48.261Z,74.84
2019-02-04T23:06:17.927Z,74.94
2019-02-04T23:08:47.432Z,75.24
2019-02-04T23:11:17.218Z,74.92
2019-02-04T23:13:46.623Z,75.10
2019-02-04T23:16:16.024Z,75.52
2019-02-04T23:18:45.442Z,75.78
2019-02-04T23:21:14.848Z,75.96
2019-02-04T23:23:44.304Z,76.02
2019-02-04T23:26:14.141Z,75.73
2019-02-04T23:28:43.542Z,76.03
2019-02-04T23:31:12.944Z,76.43
2019-02-04T23:33:42.428Z,76.64
2019-02-04T23:36:11.953Z,76.70
2019-02-04T23:38:41.356Z,76.47
2019-02-04T23:41:10.757Z,75.72
2019-02-04T23:43:40.261Z,75.63
2019-02-04T23:46:09.753Z,74.71
2019-02-04T23:48:39.180Z,74.90
2019-02-04T23:51:08.575Z,75.07
2019-02-04T23:53:38.063Z,74.63
2019-02-04T23:56:07.652Z,74.53
2019-02-04T23:58:37.042Z,73.86
